sensor_id;sensor_type;location;lat;lon;timestamp;P1;durP1;ratioP1;P2;durP2;ratioP2
10469;SDS011;5282;47.052;15.458;2024-01-30T00:01:09;13.07;;;9.03;;
10469;SDS011;5282;47.052;15.458;2024-01-30T00:03:37;11.63;;;9.40;;
10469;SDS011;5282;47.052;15.458;2024-01-30T00:06:05;12.33;;;9.20;;
10469;SDS011;5282;47.052;15.458;2024-01-30T00:08:32;13.37;;;9.73;;
10469;SDS011;5282;47.052;15.458;2024-01-30T00:10:59;15.83;;;9.53;;
10469;SDS011;5282;47.052;15.458;2024-01-30T00:13:26;16.17;;;10.63;;
10469;SDS011;5282;47.052;15.458;2024-01-30T00:15:53;15.47;;;10.67;;
10469;SDS011;5282;47.052;15.458;2024-01-30T00:18:20;14.03;;;10.70;;
10469;SDS011;5282;47.052;15.458;2024-01-30T00:20:49;14.57;;;10.87;;
10469;SDS011;5282;47.052;15.458;2024-01-30T00:23:16;14.93;;;10.87;;
10469;SDS011;5282;47.052;15.458;2024-01-30T00:25:43;18.27;;;11.30;;
10469;SDS011;5282;47.052;15.458;2024-01-30T00:28:10;15.27;;;11.83;;
10469;SDS011;5282;47.052;15.458;2024-01-30T00:30:37;20.07;;;13.07;;
10469;SDS011;5282;47.052;15.458;2024-01-30T00:33:04;21.23;;;12.57;;
10469;SDS011;5282;47.052;15.458;2024-01-30T00:35:32;27.63;;;15.23;;
10469;SDS011;5282;47.052;15.458;2024-01-30T00:38:00;26.10;;;15.40;;
10469;SDS011;5282;47.052;15.458;2024-01-30T00:40:28;27.47;;;15.60;;
10469;SDS011;5282;47.052;15.458;2024-01-30T00:42:55;31.27;;;16.60;;
10469;SDS011;5282;47.052;15.458;2024-01-30T00:45:24;25.20;;;16.13;;
10469;SDS011;5282;47.052;15.458;2024-01-30T00:47:51;30.47;;;17.43;;
10469;SDS011;5282;47.052;15.458;2024-01-30T00:50:18;30.53;;;16.80;;
10469;SDS011;5282;47.052;15.458;2024-01-30T00:52:45;29.67;;;16.90;;
10469;SDS011;5282;47.052;15.458;2024-01-30T00:55:13;24.90;;;15.60;;
10469;SDS011;5282;47.052;15.458;2024-01-30T00:57:40;25.53;;;15.80;;
10469;SDS011;5282;47.052;15.458;2024-01-30T01:00:08;23.67;;;15.83;;
10469;SDS011;5282;47.052;15.458;2024-01-30T01:02:35;28.93;;;16.47;;
10469;SDS011;5282;47.052;15.458;2024-01-30T01:05:02;26.60;;;16.33;;
10469;SDS011;5282;47.052;15.458;2024-01-30T01:07:28;25.80;;;16.47;;
10469;SDS011;5282;47.052;15.458;2024-01-30T01:09:55;24.77;;;15.57;;
10469;SDS011;5282;47.052;15.458;2024-01-30T01:12:23;29.27;;;16.47;;
10469;SDS011;5282;47.052;15.458;2024-01-30T01:14:50;23.67;;;15.47;;
10469;SDS011;5282;47.052;15.458;2024-01-30T01:17:17;28.60;;;16.13;;
10469;SDS011;5282;47.052;15.458;2024-01-30T01:19:44;27.40;;;14.77;;
10469;SDS011;5282;47.052;15.458;2024-01-30T01:22:11;24.97;;;14.90;;
10469;SDS011;5282;47.052;15.458;2024-01-30T01:24:38;24.23;;;14.93;;
10469;SDS011;5282;47.052;15.458;2024-01-30T01:27:05;22.57;;;15.27;;
10469;SDS011;5282;47.052;15.458;2024-01-30T01:29:34;23.40;;;13.73;;
10469;SDS011;5282;47.052;15.458;2024-01-30T01:32:02;22.37;;;14.43;;
10469;SDS011;5282;47.052;15.458;2024-01-30T01:34:30;25.73;;;15.80;;
10469;SDS011;5282;47.052;15.458;2024-01-30T01:36:56;21.70;;;14.87;;
10469;SDS011;5282;47.052;15.458;2024-01-30T01:39:23;23.10;;;15.07;;
10469;SDS011;5282;47.052;15.458;2024-01-30T01:41:50;27.83;;;16.27;;
10469;SDS011;5282;47.052;15.458;2024-01-30T01:44:17;23.37;;;15.33;;
10469;SDS011;5282;47.052;15.458;2024-01-30T01:46:45;23.17;;;15.20;;
10469;SDS011;5282;47.052;15.458;2024-01-30T01:49:12;24.10;;;15.13;;
10469;SDS011;5282;47.052;15.458;2024-01-30T01:51:40;23.80;;;14.73;;
10469;SDS011;5282;47.052;15.458;2024-01-30T01:54:09;23.80;;;15.00;;
10469;SDS011;5282;47.052;15.458;2024-01-30T01:56:37;23.90;;;14.93;;
10469;SDS011;5282;47.052;15.458;2024-01-30T01:59:07;25.47;;;13.97;;
10469;SDS011;5282;47.052;15.458;2024-01-30T02:01:35;25.43;;;14.67;;
10469;SDS011;5282;47.052;15.458;2024-01-30T02:04:04;19.20;;;14.23;;
10469;SDS011;5282;47.052;15.458;2024-01-30T02:06:31;24.13;;;15.33;;
10469;SDS011;5282;47.052;15.458;2024-01-30T02:08:58;23.80;;;15.30;;
10469;SDS011;5282;47.052;15.458;2024-01-30T02:11:25;23.97;;;15.13;;
10469;SDS011;5282;47.052;15.458;2024-01-30T02:13:52;19.90;;;14.67;;
10469;SDS011;5282;47.052;15.458;2024-01-30T02:16:19;26.77;;;14.77;;
10469;SDS011;5282;47.052;15.458;2024-01-30T02:18:46;22.10;;;13.90;;
10469;SDS011;5282;47.052;15.458;2024-01-30T02:21:15;20.80;;;14.77;;
10469;SDS011;5282;47.052;15.458;2024-01-30T02:23:43;23.93;;;14.33;;
10469;SDS011;5282;47.052;15.458;2024-01-30T02:26:10;23.37;;;14.83;;
10469;SDS011;5282;47.052;15.458;2024-01-30T02:28:37;24.47;;;15.13;;
10469;SDS011;5282;47.052;15.458;2024-01-30T02:31:04;23.00;;;15.17;;
10469;SDS011;5282;47.052;15.458;2024-01-30T02:33:31;23.47;;;15.23;;
10469;SDS011;5282;47.052;15.458;2024-01-30T02:35:59;28.17;;;14.90;;
10469;SDS011;5282;47.052;15.458;2024-01-30T02:38:28;27.73;;;15.07;;
10469;SDS011;5282;47.052;15.458;2024-01-30T02:40:55;24.60;;;15.40;;
10469;SDS011;5282;47.052;15.458;2024-01-30T02:43:22;26.83;;;15.93;;
10469;SDS011;5282;47.052;15.458;2024-01-30T02:45:49;23.33;;;14.87;;
10469;SDS011;5282;47.052;15.458;2024-01-30T02:48:16;23.67;;;15.17;;
10469;SDS011;5282;47.052;15.458;2024-01-30T02:50:44;22.50;;;15.53;;
10469;SDS011;5282;47.052;15.458;2024-01-30T02:53:11;26.97;;;15.70;;
10469;SDS011;5282;47.052;15.458;2024-01-30T02:55:39;35.00;;;17.97;;
10469;SDS011;5282;47.052;15.458;2024-01-30T02:58:06;36.83;;;18.30;;
10469;SDS011;5282;47.052;15.458;2024-01-30T03:00:33;45.10;;;22.23;;
10469;SDS011;5282;47.052;15.458;2024-01-30T03:03:01;54.40;;;24.20;;
10469;SDS011;5282;47.052;15.458;2024-01-30T03:05:28;47.07;;;24.07;;
10469;SDS011;5282;47.052;15.458;2024-01-30T03:07:57;46.87;;;22.43;;
10469;SDS011;5282;47.052;15.458;2024-01-30T03:10:23;42.23;;;21.53;;
10469;SDS011;5282;47.052;15.458;2024-01-30T03:12:52;38.57;;;20.00;;
10469;SDS011;5282;47.052;15.458;2024-01-30T03:15:19;32.93;;;18.13;;
10469;SDS011;5282;47.052;15.458;2024-01-30T03:17:48;33.13;;;19.17;;
10469;SDS011;5282;47.052;15.458;2024-01-30T03:20:17;32.93;;;18.60;;
10469;SDS011;5282;47.052;15.458;2024-01-30T03:22:45;26.27;;;15.90;;
10469;SDS011;5282;47.052;15.458;2024-01-30T03:25:17;30.27;;;16.77;;
10469;SDS011;5282;47.052;15.458;2024-01-30T03:27:44;29.03;;;15.80;;
10469;SDS011;5282;47.052;15.458;2024-01-30T03:30:14;24.37;;;15.40;;
10469;SDS011;5282;47.052;15.458;2024-01-30T03:32:42;26.37;;;15.33;;
10469;SDS011;5282;47.052;15.458;2024-01-30T03:35:10;26.73;;;16.13;;
10469;SDS011;5282;47.052;15.458;2024-01-30T03:37:37;31.40;;;16.87;;
10469;SDS011;5282;47.052;15.458;2024-01-30T03:40:04;28.07;;;16.57;;
10469;SDS011;5282;47.052;15.458;2024-01-30T03:42:32;26.13;;;15.37;;
10469;SDS011;5282;47.052;15.458;2024-01-30T03:44:59;29.53;;;16.07;;
10469;SDS011;5282;47.052;15.458;2024-01-30T03:47:27;30.50;;;16.10;;
10469;SDS011;5282;47.052;15.458;2024-01-30T03:49:54;26.80;;;15.07;;
10469;SDS011;5282;47.052;15.458;2024-01-30T03:52:21;22.33;;;14.37;;
10469;SDS011;5282;47.052;15.458;2024-01-30T03:54:48;26.57;;;16.37;;
10469;SDS011;5282;47.052;15.458;2024-01-30T03:57:15;23.43;;;14.80;;
10469;SDS011;5282;47.052;15.458;2024-01-30T03:59:42;28.23;;;15.80;;
10469;SDS011;5282;47.052;15.458;2024-01-30T04:02:09;25.03;;;14.97;;
10469;SDS011;5282;47.052;15.458;2024-01-30T04:04:38;25.33;;;15.20;;
10469;SDS011;5282;47.052;15.458;2024-01-30T04:07:05;23.43;;;14.90;;
10469;SDS011;5282;47.052;15.458;2024-01-30T04:09:33;22.30;;;14.07;;
10469;SDS011;5282;47.052;15.458;2024-01-30T04:12:00;20.23;;;14.73;;
10469;SDS011;5282;47.052;15.458;2024-01-30T04:14:28;21.60;;;13.63;;
10469;SDS011;5282;47.052;15.458;2024-01-30T04:16:55;27.10;;;15.23;;
10469;SDS011;5282;47.052;15.458;2024-01-30T04:19:22;23.60;;;14.60;;
10469;SDS011;5282;47.052;15.458;2024-01-30T04:21:50;23.90;;;14.70;;
10469;SDS011;5282;47.052;15.458;2024-01-30T04:24:17;22.50;;;14.53;;
10469;SDS011;5282;47.052;15.458;2024-01-30T04:26:44;24.10;;;14.13;;
10469;SDS011;5282;47.052;15.458;2024-01-30T04:29:11;23.77;;;14.30;;
10469;SDS011;5282;47.052;15.458;2024-01-30T04:31:38;22.97;;;13.97;;
10469;SDS011;5282;47.052;15.458;2024-01-30T04:34:05;22.60;;;14.27;;
10469;SDS011;5282;47.052;15.458;2024-01-30T04:36:31;23.50;;;14.23;;
10469;SDS011;5282;47.052;15.458;2024-01-30T04:39:00;20.47;;;13.93;;
10469;SDS011;5282;47.052;15.458;2024-01-30T04:41:26;23.63;;;14.70;;
10469;SDS011;5282;47.052;15.458;2024-01-30T04:43:56;20.70;;;14.10;;
10469;SDS011;5282;47.052;15.458;2024-01-30T04:46:23;20.23;;;12.63;;
10469;SDS011;5282;47.052;15.458;2024-01-30T04:48:50;23.90;;;14.13;;
10469;SDS011;5282;47.052;15.458;2024-01-30T04:51:17;21.47;;;14.23;;
10469;SDS011;5282;47.052;15.458;2024-01-30T04:53:44;22.13;;;14.13;;
10469;SDS011;5282;47.052;15.458;2024-01-30T04:56:12;22.10;;;13.57;;
10469;SDS011;5282;47.052;15.458;2024-01-30T04:58:39;21.80;;;13.77;;
10469;SDS011;5282;47.052;15.458;2024-01-30T05:01:05;25.33;;;13.13;;
10469;SDS011;5282;47.052;15.458;2024-01-30T05:03:35;20.27;;;13.60;;
10469;SDS011;5282;47.052;15.458;2024-01-30T05:06:02;20.50;;;12.07;;
10469;SDS011;5282;47.052;15.458;2024-01-30T05:08:29;17.67;;;13.30;;
10469;SDS011;5282;47.052;15.458;2024-01-30T05:10:56;19.47;;;13.23;;
10469;SDS011;5282;47.052;15.458;2024-01-30T05:13:27;20.20;;;13.10;;
10469;SDS011;5282;47.052;15.458;2024-01-30T05:15:54;18.17;;;11.93;;
10469;SDS011;5282;47.052;15.458;2024-01-30T05:18:21;18.27;;;11.80;;
10469;SDS011;5282;47.052;15.458;2024-01-30T05:20:49;17.87;;;13.23;;
10469;SDS011;5282;47.052;15.458;2024-01-30T05:23:16;18.10;;;12.97;;
10469;SDS011;5282;47.052;15.458;2024-01-30T05:25:43;18.20;;;12.53;;
10469;SDS011;5282;47.052;15.458;2024-01-30T05:28:09;19.93;;;12.30;;
10469;SDS011;5282;47.052;15.458;2024-01-30T05:30:38;18.50;;;12.20;;
10469;SDS011;5282;47.052;15.458;2024-01-30T05:33:05;16.63;;;11.60;;
10469;SDS011;5282;47.052;15.458;2024-01-30T05:35:32;18.03;;;11.53;;
10469;SDS011;5282;47.052;15.458;2024-01-30T05:37:58;16.23;;;12.07;;
10469;SDS011;5282;47.052;15.458;2024-01-30T05:40:25;20.83;;;12.73;;
10469;SDS011;5282;47.052;15.458;2024-01-30T05:42:52;19.83;;;12.80;;
10469;SDS011;5282;47.052;15.458;2024-01-30T05:45:19;20.17;;;12.53;;
10469;SDS011;5282;47.052;15.458;2024-01-30T05:47:49;22.70;;;13.57;;
10469;SDS011;5282;47.052;15.458;2024-01-30T05:50:16;20.37;;;13.67;;
10469;SDS011;5282;47.052;15.458;2024-01-30T05:52:43;24.73;;;14.47;;
10469;SDS011;5282;47.052;15.458;2024-01-30T05:55:10;21.77;;;14.73;;
10469;SDS011;5282;47.052;15.458;2024-01-30T05:57:37;23.93;;;15.77;;
10469;SDS011;5282;47.052;15.458;2024-01-30T06:00:04;26.07;;;15.47;;
10469;SDS011;5282;47.052;15.458;2024-01-30T06:02:32;27.53;;;16.40;;
10469;SDS011;5282;47.052;15.458;2024-01-30T06:05:01;22.80;;;14.93;;
10469;SDS011;5282;47.052;15.458;2024-01-30T06:07:27;24.07;;;15.53;;
10469;SDS011;5282;47.052;15.458;2024-01-30T06:09:54;22.63;;;14.97;;
10469;SDS011;5282;47.052;15.458;2024-01-30T06:12:21;23.77;;;15.10;;
10469;SDS011;5282;47.052;15.458;2024-01-30T06:14:48;26.13;;;14.50;;
10469;SDS011;5282;47.052;15.458;2024-01-30T06:17:15;27.07;;;15.07;;
10469;SDS011;5282;47.052;15.458;2024-01-30T06:19:42;24.10;;;15.17;;
10469;SDS011;5282;47.052;15.458;2024-01-30T06:22:10;26.23;;;14.27;;
10469;SDS011;5282;47.052;15.458;2024-01-30T06:24:37;25.37;;;13.90;;
10469;SDS011;5282;47.052;15.458;2024-01-30T06:27:04;20.47;;;14.37;;
10469;SDS011;5282;47.052;15.458;2024-01-30T06:29:31;22.87;;;13.50;;
10469;SDS011;5282;47.052;15.458;2024-01-30T06:32:00;21.53;;;13.47;;
10469;SDS011;5282;47.052;15.458;2024-01-30T06:34:27;20.00;;;14.27;;
10469;SDS011;5282;47.052;15.458;2024-01-30T06:36:53;22.43;;;13.80;;
10469;SDS011;5282;47.052;15.458;2024-01-30T06:39:22;24.73;;;15.80;;
10469;SDS011;5282;47.052;15.458;2024-01-30T06:41:50;24.60;;;15.53;;
10469;SDS011;5282;47.052;15.458;2024-01-30T06:44:17;24.03;;;15.90;;
10469;SDS011;5282;47.052;15.458;2024-01-30T06:46:44;34.70;;;20.20;;
10469;SDS011;5282;47.052;15.458;2024-01-30T06:49:11;29.53;;;15.60;;
10469;SDS011;5282;47.052;15.458;2024-01-30T06:51:38;20.87;;;14.67;;
10469;SDS011;5282;47.052;15.458;2024-01-30T06:54:05;23.40;;;15.20;;
10469;SDS011;5282;47.052;15.458;2024-01-30T06:56:33;22.73;;;13.40;;
10469;SDS011;5282;47.052;15.458;2024-01-30T06:59:00;19.90;;;14.37;;
10469;SDS011;5282;47.052;15.458;2024-01-30T07:01:28;23.63;;;13.87;;
10469;SDS011;5282;47.052;15.458;2024-01-30T07:03:55;24.20;;;15.03;;
10469;SDS011;5282;47.052;15.458;2024-01-30T07:06:23;22.53;;;14.17;;
10469;SDS011;5282;47.052;15.458;2024-01-30T07:08:50;24.40;;;13.57;;
10469;SDS011;5282;47.052;15.458;2024-01-30T07:11:20;23.83;;;14.53;;
10469;SDS011;5282;47.052;15.458;2024-01-30T07:13:51;22.67;;;14.30;;
10469;SDS011;5282;47.052;15.458;2024-01-30T07:16:18;21.60;;;13.80;;
10469;SDS011;5282;47.052;15.458;2024-01-30T07:18:44;20.83;;;14.10;;
10469;SDS011;5282;47.052;15.458;2024-01-30T07:21:11;23.83;;;15.50;;
10469;SDS011;5282;47.052;15.458;2024-01-30T07:23:38;22.17;;;15.27;;
10469;SDS011;5282;47.052;15.458;2024-01-30T07:26:06;23.87;;;15.63;;
10469;SDS011;5282;47.052;15.458;2024-01-30T07:28:34;21.40;;;15.17;;
10469;SDS011;5282;47.052;15.458;2024-01-30T07:31:03;25.30;;;15.23;;
10469;SDS011;5282;47.052;15.458;2024-01-30T07:33:30;23.50;;;14.80;;
10469;SDS011;5282;47.052;15.458;2024-01-30T07:35:57;24.00;;;13.90;;
10469;SDS011;5282;47.052;15.458;2024-01-30T07:38:24;23.23;;;15.80;;
10469;SDS011;5282;47.052;15.458;2024-01-30T07:40:50;22.87;;;15.70;;
10469;SDS011;5282;47.052;15.458;2024-01-30T07:43:17;21.90;;;15.00;;
10469;SDS011;5282;47.052;15.458;2024-01-30T07:45:45;23.07;;;15.23;;
10469;SDS011;5282;47.052;15.458;2024-01-30T07:48:13;23.47;;;14.50;;
10469;SDS011;5282;47.052;15.458;2024-01-30T07:50:40;22.37;;;15.07;;
10469;SDS011;5282;47.052;15.458;2024-01-30T07:53:07;24.00;;;14.97;;
10469;SDS011;5282;47.052;15.458;2024-01-30T07:55:46;25.40;;;14.50;;
10469;SDS011;5282;47.052;15.458;2024-01-30T07:58:13;29.73;;;15.33;;
10469;SDS011;5282;47.052;15.458;2024-01-30T08:00:40;20.37;;;14.37;;
10469;SDS011;5282;47.052;15.458;2024-01-30T08:03:07;24.60;;;14.80;;
10469;SDS011;5282;47.052;15.458;2024-01-30T08:05:35;19.87;;;14.10;;
10469;SDS011;5282;47.052;15.458;2024-01-30T08:08:03;25.67;;;13.80;;
10469;SDS011;5282;47.052;15.458;2024-01-30T08:10:30;23.90;;;15.03;;
10469;SDS011;5282;47.052;15.458;2024-01-30T08:12:57;23.57;;;15.03;;
10469;SDS011;5282;47.052;15.458;2024-01-30T08:15:24;25.37;;;15.10;;
10469;SDS011;5282;47.052;15.458;2024-01-30T08:17:51;23.83;;;14.90;;
10469;SDS011;5282;47.052;15.458;2024-01-30T08:20:21;19.80;;;13.97;;
10469;SDS011;5282;47.052;15.458;2024-01-30T08:22:49;21.27;;;13.77;;
10469;SDS011;5282;47.052;15.458;2024-01-30T08:25:16;22.27;;;14.83;;
10469;SDS011;5282;47.052;15.458;2024-01-30T08:27:43;21.93;;;14.63;;
10469;SDS011;5282;47.052;15.458;2024-01-30T08:30:10;26.83;;;15.93;;
10469;SDS011;5282;47.052;15.458;2024-01-30T08:32:37;19.57;;;14.60;;
10469;SDS011;5282;47.052;15.458;2024-01-30T08:35:04;23.73;;;15.27;;
10469;SDS011;5282;47.052;15.458;2024-01-30T08:37:31;19.73;;;14.77;;
10469;SDS011;5282;47.052;15.458;2024-01-30T08:40:00;22.50;;;14.93;;
10469;SDS011;5282;47.052;15.458;2024-01-30T08:42:27;20.77;;;14.33;;
10469;SDS011;5282;47.052;15.458;2024-01-30T08:44:54;20.33;;;14.60;;
10469;SDS011;5282;47.052;15.458;2024-01-30T08:47:21;19.97;;;13.90;;
10469;SDS011;5282;47.052;15.458;2024-01-30T08:49:48;21.87;;;14.27;;
10469;SDS011;5282;47.052;15.458;2024-01-30T08:52:15;23.30;;;13.03;;
10469;SDS011;5282;47.052;15.458;2024-01-30T08:54:42;19.93;;;12.33;;
10469;SDS011;5282;47.052;15.458;2024-01-30T08:57:10;18.30;;;13.87;;
10469;SDS011;5282;47.052;15.458;2024-01-30T08:59:37;23.53;;;13.23;;
10469;SDS011;5282;47.052;15.458;2024-01-30T09:02:05;39.53;;;16.03;;
10469;SDS011;5282;47.052;15.458;2024-01-30T09:04:32;23.60;;;14.37;;
10469;SDS011;5282;47.052;15.458;2024-01-30T09:06:59;24.70;;;14.77;;
10469;SDS011;5282;47.052;15.458;2024-01-30T09:09:25;23.50;;;15.10;;
10469;SDS011;5282;47.052;15.458;2024-01-30T09:11:53;23.07;;;14.17;;
10469;SDS011;5282;47.052;15.458;2024-01-30T09:14:21;22.27;;;15.20;;
10469;SDS011;5282;47.052;15.458;2024-01-30T09:16:48;30.07;;;17.07;;
10469;SDS011;5282;47.052;15.458;2024-01-30T09:19:15;29.90;;;14.53;;
10469;SDS011;5282;47.052;15.458;2024-01-30T09:21:42;25.57;;;15.17;;
10469;SDS011;5282;47.052;15.458;2024-01-30T09:24:09;22.63;;;15.47;;
10469;SDS011;5282;47.052;15.458;2024-01-30T09:26:35;23.43;;;15.30;;
10469;SDS011;5282;47.052;15.458;2024-01-30T09:29:02;21.37;;;13.97;;
10469;SDS011;5282;47.052;15.458;2024-01-30T09:31:31;21.20;;;13.23;;
10469;SDS011;5282;47.052;15.458;2024-01-30T09:33:57;23.10;;;14.37;;
10469;SDS011;5282;47.052;15.458;2024-01-30T09:36:24;27.47;;;13.73;;
10469;SDS011;5282;47.052;15.458;2024-01-30T09:38:51;16.40;;;12.67;;
10469;SDS011;5282;47.052;15.458;2024-01-30T09:41:18;22.40;;;13.73;;
10469;SDS011;5282;47.052;15.458;2024-01-30T09:43:47;33.90;;;15.27;;
10469;SDS011;5282;47.052;15.458;2024-01-30T09:46:15;22.63;;;13.50;;
10469;SDS011;5282;47.052;15.458;2024-01-30T09:48:46;24.83;;;14.90;;
10469;SDS011;5282;47.052;15.458;2024-01-30T09:51:14;24.73;;;13.93;;
10469;SDS011;5282;47.052;15.458;2024-01-30T09:53:42;17.97;;;13.03;;
10469;SDS011;5282;47.052;15.458;2024-01-30T09:56:09;20.53;;;12.80;;
10469;SDS011;5282;47.052;15.458;2024-01-30T09:58:36;22.37;;;13.07;;
10469;SDS011;5282;47.052;15.458;2024-01-30T10:01:05;22.00;;;13.30;;
10469;SDS011;5282;47.052;15.458;2024-01-30T10:03:32;15.03;;;11.63;;
10469;SDS011;5282;47.052;15.458;2024-01-30T10:06:01;15.07;;;12.10;;
10469;SDS011;5282;47.052;15.458;2024-01-30T10:08:28;18.57;;;12.87;;
10469;SDS011;5282;47.052;15.458;2024-01-30T10:10:55;16.97;;;12.17;;
10469;SDS011;5282;47.052;15.458;2024-01-30T10:13:21;27.63;;;14.93;;
10469;SDS011;5282;47.052;15.458;2024-01-30T10:15:48;35.47;;;17.33;;
10469;SDS011;5282;47.052;15.458;2024-01-30T10:18:16;23.23;;;11.60;;
10469;SDS011;5282;47.052;15.458;2024-01-30T10:20:43;16.70;;;11.20;;
10469;SDS011;5282;47.052;15.458;2024-01-30T10:23:11;14.60;;;10.50;;
10469;SDS011;5282;47.052;15.458;2024-01-30T10:25:38;15.03;;;10.63;;
10469;SDS011;5282;47.052;15.458;2024-01-30T10:28:06;11.67;;;10.17;;
10469;SDS011;5282;47.052;15.458;2024-01-30T10:30:33;24.67;;;11.00;;
10469;SDS011;5282;47.052;15.458;2024-01-30T10:32:59;16.07;;;11.27;;
10469;SDS011;5282;47.052;15.458;2024-01-30T10:35:26;17.83;;;11.43;;
10469;SDS011;5282;47.052;15.458;2024-01-30T10:37:53;11.90;;;10.30;;
10469;SDS011;5282;47.052;15.458;2024-01-30T10:40:25;22.50;;;11.87;;
10469;SDS011;5282;47.052;15.458;2024-01-30T10:42:54;12.43;;;11.00;;
10469;SDS011;5282;47.052;15.458;2024-01-30T10:45:22;16.47;;;11.40;;
10469;SDS011;5282;47.052;15.458;2024-01-30T10:47:53;15.80;;;11.60;;
10469;SDS011;5282;47.052;15.458;2024-01-30T10:50:23;18.53;;;11.47;;
10469;SDS011;5282;47.052;15.458;2024-01-30T10:52:51;13.03;;;10.40;;
10469;SDS011;5282;47.052;15.458;2024-01-30T10:55:19;12.73;;;10.10;;
10469;SDS011;5282;47.052;15.458;2024-01-30T10:57:50;20.47;;;11.87;;
10469;SDS011;5282;47.052;15.458;2024-01-30T11:00:17;12.77;;;10.13;;
10469;SDS011;5282;47.052;15.458;2024-01-30T11:02:48;15.60;;;11.27;;
10469;SDS011;5282;47.052;15.458;2024-01-30T11:05:23;17.80;;;10.60;;
10469;SDS011;5282;47.052;15.458;2024-01-30T11:07:51;13.50;;;10.03;;
10469;SDS011;5282;47.052;15.458;2024-01-30T11:10:18;11.40;;;10.30;;
10469;SDS011;5282;47.052;15.458;2024-01-30T11:12:45;11.37;;;10.00;;
10469;SDS011;5282;47.052;15.458;2024-01-30T11:15:14;13.87;;;9.80;;
10469;SDS011;5282;47.052;15.458;2024-01-30T11:17:47;15.13;;;10.50;;
10469;SDS011;5282;47.052;15.458;2024-01-30T11:20:19;15.30;;;9.90;;
10469;SDS011;5282;47.052;15.458;2024-01-30T11:22:47;12.83;;;10.17;;
10469;SDS011;5282;47.052;15.458;2024-01-30T11:25:17;11.70;;;10.47;;
10469;SDS011;5282;47.052;15.458;2024-01-30T11:27:45;12.97;;;10.67;;
10469;SDS011;5282;47.052;15.458;2024-01-30T11:30:22;13.20;;;10.30;;
10469;SDS011;5282;47.052;15.458;2024-01-30T11:32:59;15.97;;;11.00;;
10469;SDS011;5282;47.052;15.458;2024-01-30T11:35:30;11.80;;;10.60;;
10469;SDS011;5282;47.052;15.458;2024-01-30T11:37:59;16.23;;;10.97;;
10469;SDS011;5282;47.052;15.458;2024-01-30T11:40:27;14.63;;;9.63;;
10469;SDS011;5282;47.052;15.458;2024-01-30T11:42:54;12.57;;;10.20;;
10469;SDS011;5282;47.052;15.458;2024-01-30T11:45:22;13.23;;;9.77;;
10469;SDS011;5282;47.052;15.458;2024-01-30T11:47:49;14.33;;;10.07;;
10469;SDS011;5282;47.052;15.458;2024-01-30T11:50:16;12.13;;;9.50;;
10469;SDS011;5282;47.052;15.458;2024-01-30T11:52:43;11.50;;;9.63;;
10469;SDS011;5282;47.052;15.458;2024-01-30T11:55:10;9.97;;;8.57;;
10469;SDS011;5282;47.052;15.458;2024-01-30T11:57:38;13.87;;;9.73;;
10469;SDS011;5282;47.052;15.458;2024-01-30T12:00:05;11.80;;;9.40;;
10469;SDS011;5282;47.052;15.458;2024-01-30T12:02:42;10.93;;;9.17;;
10469;SDS011;5282;47.052;15.458;2024-01-30T12:05:09;10.30;;;9.07;;
10469;SDS011;5282;47.052;15.458;2024-01-30T12:07:36;14.50;;;9.27;;
10469;SDS011;5282;47.052;15.458;2024-01-30T12:10:03;10.53;;;9.40;;
10469;SDS011;5282;47.052;15.458;2024-01-30T12:12:33;9.80;;;8.70;;
10469;SDS011;5282;47.052;15.458;2024-01-30T12:15:00;13.97;;;8.87;;
10469;SDS011;5282;47.052;15.458;2024-01-30T12:17:29;18.30;;;10.43;;
10469;SDS011;5282;47.052;15.458;2024-01-30T12:20:05;13.37;;;8.70;;
10469;SDS011;5282;47.052;15.458;2024-01-30T12:22:33;16.03;;;8.70;;
10469;SDS011;5282;47.052;15.458;2024-01-30T12:25:04;9.50;;;8.53;;
10469;SDS011;5282;47.052;15.458;2024-01-30T12:27:31;10.33;;;8.97;;
10469;SDS011;5282;47.052;15.458;2024-01-30T12:29:58;12.07;;;9.13;;
10469;SDS011;5282;47.052;15.458;2024-01-30T12:32:25;12.13;;;9.43;;
10469;SDS011;5282;47.052;15.458;2024-01-30T12:34:54;9.07;;;8.23;;
10469;SDS011;5282;47.052;15.458;2024-01-30T12:37:24;12.63;;;9.37;;
10469;SDS011;5282;47.052;15.458;2024-01-30T12:39:51;9.10;;;8.17;;
10469;SDS011;5282;47.052;15.458;2024-01-30T12:42:20;9.10;;;8.30;;
10469;SDS011;5282;47.052;15.458;2024-01-30T12:44:48;10.87;;;8.60;;
10469;SDS011;5282;47.052;15.458;2024-01-30T12:47:15;9.20;;;7.77;;
10469;SDS011;5282;47.052;15.458;2024-01-30T12:49:42;9.20;;;8.40;;
10469;SDS011;5282;47.052;15.458;2024-01-30T12:52:10;11.57;;;8.30;;
10469;SDS011;5282;47.052;15.458;2024-01-30T12:54:38;9.03;;;8.17;;
10469;SDS011;5282;47.052;15.458;2024-01-30T12:57:05;9.83;;;8.13;;
10469;SDS011;5282;47.052;15.458;2024-01-30T12:59:32;8.90;;;8.10;;
10469;SDS011;5282;47.052;15.458;2024-01-30T13:02:00;11.53;;;8.40;;
10469;SDS011;5282;47.052;15.458;2024-01-30T13:04:28;10.37;;;8.73;;
10469;SDS011;5282;47.052;15.458;2024-01-30T13:06:55;9.67;;;8.83;;
10469;SDS011;5282;47.052;15.458;2024-01-30T13:09:23;12.00;;;9.30;;
10469;SDS011;5282;47.052;15.458;2024-01-30T13:11:51;10.60;;;8.57;;
10469;SDS011;5282;47.052;15.458;2024-01-30T13:14:18;10.17;;;8.90;;
10469;SDS011;5282;47.052;15.458;2024-01-30T13:16:46;10.90;;;8.57;;
10469;SDS011;5282;47.052;15.458;2024-01-30T13:19:13;15.27;;;9.43;;
10469;SDS011;5282;47.052;15.458;2024-01-30T13:21:40;15.97;;;9.40;;
10469;SDS011;5282;47.052;15.458;2024-01-30T13:24:06;10.17;;;9.07;;
10469;SDS011;5282;47.052;15.458;2024-01-30T13:26:33;10.03;;;8.90;;
10469;SDS011;5282;47.052;15.458;2024-01-30T13:29:02;8.80;;;7.93;;
10469;SDS011;5282;47.052;15.458;2024-01-30T13:31:29;10.97;;;8.50;;
10469;SDS011;5282;47.052;15.458;2024-01-30T13:33:56;10.53;;;9.03;;
10469;SDS011;5282;47.052;15.458;2024-01-30T13:36:23;10.23;;;8.53;;
10469;SDS011;5282;47.052;15.458;2024-01-30T13:38:50;16.17;;;9.90;;
10469;SDS011;5282;47.052;15.458;2024-01-30T13:41:17;13.40;;;9.03;;
10469;SDS011;5282;47.052;15.458;2024-01-30T13:43:44;11.23;;;9.13;;
10469;SDS011;5282;47.052;15.458;2024-01-30T13:46:12;10.17;;;8.87;;
10469;SDS011;5282;47.052;15.458;2024-01-30T13:48:39;11.90;;;9.30;;
10469;SDS011;5282;47.052;15.458;2024-01-30T13:51:06;11.83;;;8.77;;
10469;SDS011;5282;47.052;15.458;2024-01-30T13:53:34;9.27;;;8.47;;
10469;SDS011;5282;47.052;15.458;2024-01-30T13:56:01;10.63;;;8.27;;
10469;SDS011;5282;47.052;15.458;2024-01-30T13:58:28;15.27;;;9.13;;
10469;SDS011;5282;47.052;15.458;2024-01-30T14:00:56;10.37;;;9.27;;
10469;SDS011;5282;47.052;15.458;2024-01-30T14:03:24;15.80;;;9.13;;
10469;SDS011;5282;47.052;15.458;2024-01-30T14:05:51;9.30;;;8.40;;
10469;SDS011;5282;47.052;15.458;2024-01-30T14:08:18;9.63;;;8.73;;
10469;SDS011;5282;47.052;15.458;2024-01-30T14:10:47;12.30;;;9.20;;
10469;SDS011;5282;47.052;15.458;2024-01-30T14:13:14;9.80;;;8.73;;
10469;SDS011;5282;47.052;15.458;2024-01-30T14:15:41;9.70;;;8.60;;
10469;SDS011;5282;47.052;15.458;2024-01-30T14:18:08;10.40;;;9.07;;
10469;SDS011;5282;47.052;15.458;2024-01-30T14:20:37;13.10;;;9.27;;
10469;SDS011;5282;47.052;15.458;2024-01-30T14:23:04;12.13;;;9.40;;
10469;SDS011;5282;47.052;15.458;2024-01-30T14:25:32;10.10;;;9.20;;
10469;SDS011;5282;47.052;15.458;2024-01-30T14:27:59;10.77;;;9.40;;